createdAt,value
2023-01-15T00:01:29.829Z,37.33
2023-01-15T00:05:31.833Z,32.00
2023-01-15T00:09:33.917Z,40.10
2023-01-15T00:13:35.840Z,34.28
2023-01-15T00:17:37.818Z,34.72
2023-01-15T00:21:39.869Z,28.45
2023-01-15T00:26:00.351Z,33.78
2023-01-15T00:30:02.423Z,32.10
2023-01-15T00:34:05.136Z,31.67
2023-01-15T00:38:07.126Z,27.30
2023-01-15T00:42:11.651Z,34.45
2023-01-15T00:46:13.939Z,32.95
2023-01-15T00:50:16.133Z,29.88
2023-01-15T00:54:18.164Z,32.22
2023-01-15T00:58:20.183Z,32.97
2023-01-15T01:02:22.865Z,29.15
2023-01-15T01:06:25.200Z,25.17
2023-01-15T01:10:27.898Z,32.13
2023-01-15T01:14:29.980Z,26.73
2023-01-15T01:18:31.963Z,32.40
2023-01-15T01:22:34.069Z,26.80
2023-01-15T01:26:37.222Z,27.63
2023-01-15T01:30:38.977Z,26.65
2023-01-15T01:34:41.119Z,25.20
2023-01-15T01:38:43.243Z,22.75
2023-01-15T01:42:46.706Z,27.60
2023-01-15T01:46:48.754Z,36.03
2023-01-15T01:50:51.277Z,22.67
2023-01-15T01:54:53.776Z,28.13
2023-01-15T01:58:57.068Z,22.52
2023-01-15T02:03:02.432Z,25.52
2023-01-15T02:07:04.878Z,27.73
2023-01-15T02:11:12.469Z,23.50
2023-01-15T02:15:19.110Z,26.63
2023-01-15T02:19:41.269Z,26.60
2023-01-15T02:23:58.240Z,30.15
2023-01-15T02:28:28.955Z,31.25
2023-01-15T02:32:38.234Z,27.38
2023-01-15T02:36:48.907Z,26.35
2023-01-15T02:41:02.251Z,29.63
2023-01-15T02:45:08.577Z,32.97
2023-01-15T02:49:15.257Z,29.48
2023-01-15T02:53:25.082Z,33.15
2023-01-15T02:57:32.736Z,31.00
2023-01-15T03:01:44.116Z,33.33
2023-01-15T03:05:57.905Z,28.98
2023-01-15T03:10:00.005Z,28.55
2023-01-15T03:14:09.249Z,29.58
2023-01-15T03:18:14.644Z,27.08
2023-01-15T03:22:33.393Z,25.02
2023-01-15T03:26:35.571Z,28.75
2023-01-15T03:30:37.943Z,27.92
2023-01-15T03:34:46.476Z,29.25
2023-01-15T03:38:52.678Z,27.30
2023-01-15T03:43:43.109Z,25.98
2023-01-15T03:48:18.222Z,28.45
2023-01-15T03:52:46.270Z,19.02
2023-01-15T03:56:58.571Z,23.08
2023-01-15T04:01:03.588Z,25.60
2023-01-15T04:05:07.142Z,20.80
2023-01-15T04:09:12.328Z,20.75
2023-01-15T04:13:14.373Z,18.75
2023-01-15T04:17:18.088Z,18.25
2023-01-15T04:21:20.919Z,18.80
2023-01-15T04:25:22.782Z,22.23
2023-01-15T04:29:26.221Z,16.98
2023-01-15T04:33:28.182Z,16.50
2023-01-15T04:37:30.088Z,21.27
2023-01-15T04:41:50.734Z,17.40
2023-01-15T04:45:52.674Z,18.80
2023-01-15T04:49:54.336Z,18.05
2023-01-15T04:53:56.488Z,17.85
2023-01-15T04:57:58.296Z,17.80
2023-01-15T05:02:06.064Z,18.98
2023-01-15T05:10:11.238Z,16.30
2023-01-15T05:14:13.169Z,17.48
2023-01-15T05:18:15.253Z,14.50
2023-01-15T05:22:17.372Z,17.55
2023-01-15T05:26:21.218Z,13.63
2023-01-15T05:30:22.952Z,12.80
2023-01-15T05:34:24.894Z,11.48
2023-01-15T05:38:26.786Z,13.05
2023-01-15T05:42:28.548Z,10.15
2023-01-15T05:46:31.420Z,10.00
2023-01-15T05:50:33.172Z,10.88
2023-01-15T05:54:36.109Z,11.73
2023-01-15T05:58:38.242Z,12.88
2023-01-15T06:02:39.979Z,10.98
2023-01-15T06:06:42.886Z,6.63
2023-01-15T06:10:45.344Z,14.13
2023-01-15T06:14:47.290Z,9.82
2023-01-15T06:18:49.185Z,10.65
2023-01-15T06:22:51.075Z,7.80
2023-01-15T06:26:53.109Z,9.55
2023-01-15T06:30:55.490Z,12.50
2023-01-15T06:34:57.334Z,7.05
2023-01-15T06:38:59.330Z,10.43
2023-01-15T06:43:19.613Z,8.38
2023-01-15T06:47:22.107Z,6.03
2023-01-15T06:51:24.999Z,7.93
2023-01-15T06:55:27.002Z,8.02
2023-01-15T06:59:29.253Z,10.48
2023-01-15T07:03:31.088Z,8.23
2023-01-15T07:07:34.218Z,5.90
2023-01-15T07:11:49.191Z,6.95
2023-01-15T07:15:51.232Z,9.15
2023-01-15T07:19:53.171Z,8.65
2023-01-15T07:23:58.553Z,11.63
2023-01-15T07:28:00.257Z,15.43
2023-01-15T07:32:02.394Z,7.70
2023-01-15T07:36:05.647Z,11.20
2023-01-15T07:40:08.216Z,11.10
2023-01-15T07:44:30.007Z,8.05
2023-01-15T07:48:50.347Z,9.48
2023-01-15T07:52:53.416Z,12.43
2023-01-15T07:56:56.513Z,10.13
2023-01-15T08:00:58.605Z,8.48
2023-01-15T08:05:00.615Z,9.27
2023-01-15T08:09:03.048Z,12.15
2023-01-15T08:13:23.872Z,9.30
2023-01-15T08:17:26.065Z,6.80
2023-01-15T08:21:27.804Z,14.32
2023-01-15T08:25:29.985Z,12.07
2023-01-15T08:29:32.224Z,13.00
2023-01-15T08:33:34.184Z,9.63
2023-01-15T08:37:36.452Z,11.25
2023-01-15T08:41:38.394Z,8.65
2023-01-15T08:45:40.343Z,6.68
2023-01-15T08:49:42.525Z,8.27
2023-01-15T08:53:44.486Z,17.77
2023-01-15T08:57:46.461Z,10.85
2023-01-15T09:01:48.796Z,8.80
2023-01-15T09:05:50.845Z,12.32
2023-01-15T09:09:52.840Z,14.23
2023-01-15T09:13:54.960Z,11.57
2023-01-15T09:17:57.392Z,11.98
2023-01-15T09:21:59.300Z,22.80
2023-01-15T09:26:06.041Z,11.02
2023-01-15T09:30:14.281Z,8.93
2023-01-15T09:34:16.199Z,12.68
2023-01-15T09:38:21.189Z,11.15
2023-01-15T09:42:48.127Z,9.57
2023-01-15T09:47:14.714Z,14.32
2023-01-15T09:51:36.263Z,15.25
2023-01-15T09:55:50.503Z,11.25
2023-01-15T09:59:54.808Z,10.77
2023-01-15T10:04:02.335Z,9.77
2023-01-15T10:08:09.880Z,8.88
2023-01-15T10:12:35.500Z,13.68
2023-01-15T10:16:37.725Z,18.13
2023-01-15T10:20:45.867Z,9.88
2023-01-15T10:25:00.012Z,13.77
2023-01-15T10:29:11.051Z,14.07
2023-01-15T10:33:38.877Z,14.43
2023-01-15T10:37:59.637Z,13.80
2023-01-15T10:42:21.231Z,14.13
2023-01-15T10:46:27.616Z,15.68
2023-01-15T10:50:29.806Z,15.20
2023-01-15T10:54:40.204Z,16.15
2023-01-15T10:59:05.226Z,16.50
2023-01-15T11:03:16.494Z,15.32
2023-01-15T11:07:18.756Z,13.20
2023-01-15T11:11:45.426Z,16.70
2023-01-15T11:16:08.566Z,12.82
2023-01-15T11:20:36.952Z,15.32
2023-01-15T11:24:47.855Z,17.60
2023-01-15T11:28:50.240Z,14.48
2023-01-15T11:32:57.907Z,28.85
2023-01-15T11:37:05.395Z,21.00
2023-01-15T11:41:07.454Z,19.52
2023-01-15T11:45:35.830Z,16.77
2023-01-15T11:49:56.283Z,25.75
2023-01-15T11:54:04.296Z,19.35
2023-01-15T11:58:09.727Z,18.70
2023-01-15T12:02:24.007Z,24.38
2023-01-15T12:06:26.983Z,22.77
2023-01-15T12:10:55.020Z,25.27
2023-01-15T12:15:15.619Z,23.75
2023-01-15T12:19:43.459Z,20.27
2023-01-15T12:23:57.422Z,23.30
2023-01-15T12:28:09.934Z,25.35
2023-01-15T12:32:18.877Z,23.30
2023-01-15T12:36:43.131Z,22.33
2023-01-15T12:40:53.918Z,21.58
2023-01-15T12:45:01.703Z,23.77
2023-01-15T12:49:11.986Z,25.20
2023-01-15T12:53:26.203Z,25.05
2023-01-15T12:57:35.558Z,24.50
2023-01-15T13:01:52.247Z,26.92
2023-01-15T13:06:01.413Z,25.60
2023-01-15T13:10:15.848Z,24.35
2023-01-15T13:14:21.741Z,26.13
2023-01-15T13:18:32.602Z,27.73
2023-01-15T13:23:04.697Z,25.70
2023-01-15T13:27:22.162Z,24.55
2023-01-15T13:31:44.225Z,26.38
2023-01-15T13:35:53.999Z,24.15
2023-01-15T13:40:01.592Z,23.75
2023-01-15T13:44:03.985Z,20.48
2023-01-15T13:48:33.727Z,28.63
2023-01-15T13:52:37.187Z,23.13
2023-01-15T13:56:39.977Z,27.20
2023-01-15T14:00:41.964Z,22.58
2023-01-15T14:04:43.919Z,19.63
2023-01-15T14:08:46.230Z,25.25
2023-01-15T14:13:29.904Z,22.23
2023-01-15T14:18:02.696Z,23.08
2023-01-15T14:22:33.725Z,23.70
2023-01-15T14:26:54.822Z,23.23
2023-01-15T14:31:14.858Z,25.85
2023-01-15T14:35:21.630Z,27.90
2023-01-15T14:39:46.551Z,25.85
2023-01-15T14:43:49.704Z,31.27
2023-01-15T14:48:00.487Z,29.92
2023-01-15T14:52:02.898Z,27.27
2023-01-15T14:56:16.337Z,26.20
2023-01-15T15:00:20.237Z,25.10
2023-01-15T15:04:43.777Z,29.90
2023-01-15T15:08:46.533Z,28.35
2023-01-15T15:12:52.158Z,32.55
2023-01-15T15:16:57.379Z,30.38
2023-01-15T15:20:59.524Z,31.83
2023-01-15T15:25:10.662Z,24.92
2023-01-15T15:29:15.142Z,26.10
2023-01-15T15:33:25.938Z,28.20
2023-01-15T15:37:29.045Z,21.15
2023-01-15T15:41:53.635Z,24.30
2023-01-15T15:46:15.688Z,28.83
2023-01-15T15:50:23.207Z,30.88
2023-01-15T15:54:29.763Z,30.45
2023-01-15T15:58:35.957Z,20.30
2023-01-15T16:02:40.450Z,26.63
2023-01-15T16:06:42.636Z,26.40
2023-01-15T16:10:47.853Z,27.25
2023-01-15T16:14:51.610Z,24.77
2023-01-15T16:18:57.004Z,27.77
2023-01-15T16:23:01.205Z,25.13
2023-01-15T16:27:11.882Z,25.17
2023-01-15T16:31:17.516Z,23.95
2023-01-15T16:35:22.595Z,21.52
2023-01-15T16:39:43.770Z,21.85
2023-01-15T16:43:59.804Z,18.77
2023-01-15T16:48:07.550Z,14.57
2023-01-15T16:52:44.482Z,14.82
2023-01-15T16:56:53.094Z,17.50
2023-01-15T17:00:56.692Z,21.95
2023-01-15T17:04:58.800Z,15.68
2023-01-15T17:09:01.011Z,25.95
2023-01-15T17:13:02.749Z,16.20
2023-01-15T17:17:17.766Z,16.98
2023-01-15T17:21:28.786Z,20.27
2023-01-15T17:25:35.229Z,24.05
2023-01-15T17:29:37.157Z,22.15
2023-01-15T17:33:39.296Z,19.52
2023-01-15T17:37:52.837Z,20.00
2023-01-15T17:41:54.916Z,25.02
2023-01-15T17:45:57.472Z,26.27
2023-01-15T17:49:59.423Z,22.35
2023-01-15T17:54:01.393Z,27.65
2023-01-15T17:58:22.524Z,21.98
2023-01-15T18:02:42.948Z,20.67
2023-01-15T18:06:56.370Z,25.48
2023-01-15T18:10:58.409Z,28.23
2023-01-15T18:15:00.780Z,31.65
2023-01-15T18:19:03.051Z,28.77
2023-01-15T18:23:05.255Z,26.25
2023-01-15T18:27:07.208Z,29.75
2023-01-15T18:31:11.462Z,29.13
2023-01-15T18:35:14.854Z,30.30
2023-01-15T18:39:17.016Z,30.40
2023-01-15T18:43:37.572Z,30.52
2023-01-15T18:47:41.069Z,34.28
2023-01-15T18:51:42.979Z,74.93
2023-01-15T18:55:45.078Z,41.83
2023-01-15T18:59:47.962Z,38.30
2023-01-15T19:03:49.633Z,33.67
2023-01-15T19:07:51.828Z,42.90
2023-01-15T19:11:54.027Z,34.88
2023-01-15T19:16:14.668Z,35.00
2023-01-15T19:20:19.340Z,41.92
2023-01-15T19:24:21.323Z,46.65
2023-01-15T19:28:23.489Z,83.35
2023-01-15T19:32:25.581Z,82.65
2023-01-15T19:36:27.437Z,31.02
2023-01-15T19:40:31.492Z,26.77
2023-01-15T19:44:52.181Z,67.22
2023-01-15T19:49:12.529Z,33.30
2023-01-15T19:53:14.828Z,26.75
2023-01-15T19:57:21.395Z,24.10
2023-01-15T20:01:23.555Z,19.20
2023-01-15T20:05:27.868Z,25.95
2023-01-15T20:09:29.738Z,33.10
2023-01-15T20:13:51.363Z,54.03
2023-01-15T20:17:53.716Z,33.80
2023-01-15T20:21:55.431Z,17.77
2023-01-15T20:26:04.798Z,16.45
2023-01-15T20:30:10.532Z,20.27
2023-01-15T20:34:12.580Z,33.22
2023-01-15T20:38:14.281Z,19.00
2023-01-15T20:42:34.908Z,20.77
2023-01-15T20:46:36.938Z,28.23
2023-01-15T20:50:41.456Z,28.52
2023-01-15T20:54:43.407Z,28.13
2023-01-15T20:58:45.973Z,29.15
2023-01-15T21:02:48.278Z,28.05
2023-01-15T21:06:50.379Z,41.35
2023-01-15T21:10:54.123Z,36.50
2023-01-15T21:14:56.113Z,35.33
2023-01-15T21:19:01.003Z,30.05
2023-01-15T21:23:03.054Z,32.80
2023-01-15T21:27:05.645Z,30.48
2023-01-15T21:31:12.256Z,34.50
2023-01-15T21:35:14.382Z,25.85
2023-01-15T21:39:17.230Z,25.58
2023-01-15T21:43:37.753Z,29.58
2023-01-15T21:47:41.472Z,50.05
2023-01-15T21:51:43.399Z,24.80
2023-01-15T21:55:49.289Z,19.92
2023-01-15T21:59:51.349Z,18.45
2023-01-15T22:03:53.336Z,15.18
2023-01-15T22:07:56.136Z,25.27
2023-01-15T22:11:58.205Z,29.48
2023-01-15T22:16:00.351Z,18.20
2023-01-15T22:20:02.513Z,18.92
2023-01-15T22:24:05.172Z,17.80
2023-01-15T22:28:07.245Z,17.27
2023-01-15T22:32:11.599Z,15.27
2023-01-15T22:36:14.725Z,14.85
2023-01-15T22:40:16.727Z,14.18
2023-01-15T22:44:18.740Z,12.85
2023-01-15T22:48:20.401Z,17.38
2023-01-15T22:52:25.192Z,15.90
2023-01-15T22:56:27.496Z,19.52
2023-01-15T23:00:29.542Z,14.65
2023-01-15T23:04:31.838Z,11.82
2023-01-15T23:08:35.439Z,18.40
2023-01-15T23:12:39.282Z,12.02
2023-01-15T23:16:41.709Z,14.15
2023-01-15T23:20:43.591Z,15.27
2023-01-15T23:24:45.591Z,14.18
2023-01-15T23:28:47.565Z,14.07
2023-01-15T23:32:49.662Z,12.00
2023-01-15T23:36:51.876Z,12.18
2023-01-15T23:40:54.151Z,12.38
2023-01-15T23:45:14.656Z,13.20
2023-01-15T23:49:18.711Z,12.20
2023-01-15T23:53:20.653Z,12.77
2023-01-15T23:57:22.583Z,13.55
